Aeroporto :
LOGIN :

Iscrizione | Disclaimer

   EN    FR    IT 

 










Sommario :    VFR   VFR Marginale   IFR   IFR Intensivo   IFR Molto Intensivo
Visibilità : 
Base nubi : 
>= 8 km
>= 3000ft
5 / 8 km
1000 / 3000 ft
1500m / 5 km
500 / 1000 ft
800 / 1500m
200 / 500 ft
< 800m
< 200 ft
Simboli :   Temporali  Nebbia  Neve Forte  Precipitazioni Forti  Vento > 20 kt
SIGMETs :   Varie  Temporali  Ghiacco  Turbolenza  Onda orograficha  Ceneri Vulcaniche






- Altitudine del aeroporto : 856 ft
- Codice IATA : VGO


LEVX - Vigo Peinador

ULTIMO METAR :
  • 301530Z 26007KT 230V310 CAVOK 23/17 Q1012 NOSIG

METARs OBSOLETI :
  • 301500Z 27007KT 230V340 CAVOK 24/17 Q1012 NOSIG
  • 301430Z 28010KT 240V320 CAVOK 24/18 Q1012 NOSIG
  • 301400Z 27008KT 230V310 CAVOK 25/18 Q1012 NOSIG
  • 301330Z 26009KT 230V300 CAVOK 25/18 Q1012 NOSIG
  • 301300Z 26009KT CAVOK 25/18 Q1012 NOSIG

TAF TAF LEVX
Valido dal 30 a 12 ore il 31 a 12 ore UTC


301100Z 3012/3112 27008KT 9999 FEW010 TX29/3013Z TN16/3106Z
TEMPO 3021/3109 3000 BCFG BKN010
PROB40
TEMPO 3021/3106 0800 BCFG VV001



MetMap, La meteo Aeronautica in un colpo d'occhio ! - Copyright ORBIFLY Dicembre 2007 - Disclaimer

ORBIFLY MET'MAP TEAM :

Programmazione e sviluppo : Alexandra Zaïnal
Concezione : Baudouin d'Aumeries
Aiuto per la programmazione : Marc-Olivier Méhu
Supporto tecnico e logistico : Manuel Goepfert
Aiuto per la traduzione : Arnaldo La Scala

Contatto : metmap@orbifly.com




FONTI E CREDITI :

   NOAA